ADDS TAF Data INFO
IDs: Format: Raw Decoded Include METARs

Data at: 0000 UTC 27 Jun 2017

TAF AMD ETSI 261414Z 2614/2623 27010KT 9999 NSW FEW060 SCT280 CANCEL 1520


Page loaded:  00:00 UTC  |   05:00 PM Pacific  |   06:00 PM Mountain  |   07:00 PM Central  |   08:00 PM Eastern

 

ADVISORIES

FORECASTS

FORECASTS

OBSERVATIONS

USER TOOLS

ABOUT US